ADDS TAF Data INFO
IDs: Format: Raw Decoded Include METARs

Data at: 0541 UTC 11 Dec 2017

KPGD 110525Z 1106/1206 03004KT P6SM SKC
  FM111900 35007KT P6SM FEW250